sensor_id;sensor_type;location;lat;lon;timestamp;pressure;altitude;pressure_sealevel;temperature;humidity
70925;BME280;58577;52.410;13.242;2022-12-16T00:01:51;100680.59;;;-10.70;100.00
70925;BME280;58577;52.410;13.242;2022-12-16T00:04:37;100678.91;;;-10.71;100.00
70925;BME280;58577;52.410;13.242;2022-12-16T00:07:23;100683.72;;;-10.34;100.00
70925;BME280;58577;52.410;13.242;2022-12-16T00:10:09;100685.19;;;-10.15;100.00
70925;BME280;58577;52.410;13.242;2022-12-16T00:12:55;100688.03;;;-10.35;100.00
70925;BME280;58577;52.410;13.242;2022-12-16T00:15:40;100687.34;;;-10.51;100.00
70925;BME280;58577;52.410;13.242;2022-12-16T00:18:26;100689.16;;;-10.59;100.00
70925;BME280;58577;52.410;13.242;2022-12-16T00:21:13;100686.63;;;-10.66;100.00
70925;BME280;58577;52.410;13.242;2022-12-16T00:23:58;100688.91;;;-10.34;100.00
70925;BME280;58577;52.410;13.242;2022-12-16T00:26:44;100696.00;;;-10.55;100.00
70925;BME280;58577;52.410;13.242;2022-12-16T00:29:30;100703.06;;;-10.66;100.00
70925;BME280;58577;52.410;13.242;2022-12-16T00:32:16;100706.53;;;-10.70;100.00
70925;BME280;58577;52.410;13.242;2022-12-16T00:35:02;100714.38;;;-10.75;100.00
70925;BME280;58577;52.410;13.242;2022-12-16T00:37:48;100713.47;;;-10.72;100.00
70925;BME280;58577;52.410;13.242;2022-12-16T00:40:34;100720.38;;;-10.70;100.00
70925;BME280;58577;52.410;13.242;2022-12-16T00:43:20;100712.31;;;-10.39;100.00
70925;BME280;58577;52.410;13.242;2022-12-16T00:46:05;100718.38;;;-10.41;100.00
70925;BME280;58577;52.410;13.242;2022-12-16T00:48:51;100711.53;;;-10.49;100.00
70925;BME280;58577;52.410;13.242;2022-12-16T00:51:37;100714.16;;;-10.52;100.00
70925;BME280;58577;52.410;13.242;2022-12-16T00:54:23;100708.63;;;-10.22;100.00
70925;BME280;58577;52.410;13.242;2022-12-16T00:57:09;100708.81;;;-10.38;100.00
70925;BME280;58577;52.410;13.242;2022-12-16T00:59:55;100706.94;;;-10.28;100.00
70925;BME280;58577;52.410;13.242;2022-12-16T01:02:46;100708.88;;;-10.41;100.00
70925;BME280;58577;52.410;13.242;2022-12-16T01:05:32;100708.53;;;-10.15;100.00
70925;BME280;58577;52.410;13.242;2022-12-16T01:08:18;100716.66;;;-10.42;100.00
70925;BME280;58577;52.410;13.242;2022-12-16T01:11:04;100704.75;;;-10.62;100.00
70925;BME280;58577;52.410;13.242;2022-12-16T01:13:50;100710.88;;;-10.71;100.00
70925;BME280;58577;52.410;13.242;2022-12-16T01:16:37;100710.94;;;-10.77;100.00
70925;BME280;58577;52.410;13.242;2022-12-16T01:19:23;100708.41;;;-10.84;100.00
70925;BME280;58577;52.410;13.242;2022-12-16T01:22:10;100708.06;;;-10.48;100.00
70925;BME280;58577;52.410;13.242;2022-12-16T01:24:56;100713.28;;;-10.51;100.00
70925;BME280;58577;52.410;13.242;2022-12-16T01:27:42;100715.06;;;-10.56;100.00
70925;BME280;58577;52.410;13.242;2022-12-16T01:30:28;100717.75;;;-10.66;100.00
70925;BME280;58577;52.410;13.242;2022-12-16T01:33:13;100712.34;;;-10.45;100.00
70925;BME280;58577;52.410;13.242;2022-12-16T01:36:05;100721.25;;;-10.72;100.00
70925;BME280;58577;52.410;13.242;2022-12-16T01:38:51;100716.97;;;-10.76;100.00
70925;BME280;58577;52.410;13.242;2022-12-16T01:41:37;100710.94;;;-10.80;100.00
70925;BME280;58577;52.410;13.242;2022-12-16T01:44:25;100707.56;;;-10.88;100.00
70925;BME280;58577;52.410;13.242;2022-12-16T01:47:15;100707.63;;;-10.96;100.00
70925;BME280;58577;52.410;13.242;2022-12-16T01:50:05;100715.38;;;-10.93;100.00
70925;BME280;58577;52.410;13.242;2022-12-16T01:52:56;100704.75;;;-10.63;100.00
70925;BME280;58577;52.410;13.242;2022-12-16T01:55:47;100709.78;;;-10.46;100.00
70925;BME280;58577;52.410;13.242;2022-12-16T01:58:37;100710.72;;;-10.55;100.00
70925;BME280;58577;52.410;13.242;2022-12-16T02:01:24;100709.19;;;-10.75;100.00
70925;BME280;58577;52.410;13.242;2022-12-16T02:04:14;100709.25;;;-10.82;100.00
70925;BME280;58577;52.410;13.242;2022-12-16T02:07:00;100713.38;;;-10.63;100.00
70925;BME280;58577;52.410;13.242;2022-12-16T02:09:46;100709.25;;;-10.85;100.00
70925;BME280;58577;52.410;13.242;2022-12-16T02:15:51;100711.97;;;-11.01;100.00
70925;BME280;58577;52.410;13.242;2022-12-16T02:18:59;100715.38;;;-10.93;100.00
70925;BME280;58577;52.410;13.242;2022-12-16T02:28:10;100705.53;;;-10.55;100.00
70925;BME280;58577;52.410;13.242;2022-12-16T02:33:47;100709.81;;;-10.51;100.00
70925;BME280;58577;52.410;13.242;2022-12-16T02:37:08;100706.59;;;-10.76;100.00
70925;BME280;58577;52.410;13.242;2022-12-16T02:40:10;100708.28;;;-10.72;100.00
70925;BME280;58577;52.410;13.242;2022-12-16T02:46:12;100698.94;;;-10.92;100.00
70925;BME280;58577;52.410;13.242;2022-12-16T02:52:10;100700.84;;;-11.12;100.00
70925;BME280;58577;52.410;13.242;2022-12-16T02:55:00;100699.22;;;-11.25;100.00
70925;BME280;58577;52.410;13.242;2022-12-16T02:57:57;100706.16;;;-11.34;100.00
70925;BME280;58577;52.410;13.242;2022-12-16T03:01:07;100690.59;;;-11.28;100.00
70925;BME280;58577;52.410;13.242;2022-12-16T03:06:46;100689.78;;;-11.36;100.00
70925;BME280;58577;52.410;13.242;2022-12-16T03:09:35;100689.78;;;-11.36;100.00
70925;BME280;58577;52.410;13.242;2022-12-16T03:12:23;100683.63;;;-11.19;100.00
70925;BME280;58577;52.410;13.242;2022-12-16T03:15:12;100686.81;;;-10.83;100.00
70925;BME280;58577;52.410;13.242;2022-12-16T03:18:01;100684.16;;;-10.77;100.00
70925;BME280;58577;52.410;13.242;2022-12-16T03:21:06;100681.56;;;-10.80;100.00
70925;BME280;58577;52.410;13.242;2022-12-16T03:24:04;100678.91;;;-10.70;100.00
70925;BME280;58577;52.410;13.242;2022-12-16T03:27:03;100674.72;;;-10.86;100.00
70925;BME280;58577;52.410;13.242;2022-12-16T03:30:04;100684.03;;;-10.66;99.96
70925;BME280;58577;52.410;13.242;2022-12-16T03:35:48;100676.44;;;-10.86;100.00
70925;BME280;58577;52.410;13.242;2022-12-16T03:38:36;100673.00;;;-10.89;100.00
70925;BME280;58577;52.410;13.242;2022-12-16T03:41:23;100675.66;;;-10.95;100.00
70925;BME280;58577;52.410;13.242;2022-12-16T03:44:10;100666.03;;;-10.82;100.00
70925;BME280;58577;52.410;13.242;2022-12-16T03:46:57;100674.84;;;-11.00;99.93
70925;BME280;58577;52.410;13.242;2022-12-16T03:49:42;100674.06;;;-11.11;100.00
70925;BME280;58577;52.410;13.242;2022-12-16T03:52:30;100674.75;;;-10.91;100.00
70925;BME280;58577;52.410;13.242;2022-12-16T03:55:15;100680.72;;;-10.79;100.00
70925;BME280;58577;52.410;13.242;2022-12-16T03:58:01;100673.03;;;-10.90;100.00
70925;BME280;58577;52.410;13.242;2022-12-16T04:00:47;100674.00;;;-11.05;100.00
70925;BME280;58577;52.410;13.242;2022-12-16T04:03:33;100679.22;;;-11.08;100.00
70925;BME280;58577;52.410;13.242;2022-12-16T04:06:19;100684.34;;;-10.99;100.00
70925;BME280;58577;52.410;13.242;2022-12-16T04:09:05;100688.81;;;-11.18;100.00
70925;BME280;58577;52.410;13.242;2022-12-16T04:11:51;100672.38;;;-11.14;100.00
70925;BME280;58577;52.410;13.242;2022-12-16T04:14:55;100683.66;;;-11.22;100.00
70925;BME280;58577;52.410;13.242;2022-12-16T04:17:59;100695.81;;;-11.34;100.00
70925;BME280;58577;52.410;13.242;2022-12-16T04:21:04;100697.59;;;-11.40;100.00
70925;BME280;58577;52.410;13.242;2022-12-16T04:24:12;100704.50;;;-11.39;100.00
70925;BME280;58577;52.410;13.242;2022-12-16T04:27:06;100698.47;;;-11.44;100.00
70925;BME280;58577;52.410;13.242;2022-12-16T04:30:14;100697.63;;;-11.48;100.00
70925;BME280;58577;52.410;13.242;2022-12-16T04:33:11;100704.47;;;-11.33;100.00
70925;BME280;58577;52.410;13.242;2022-12-16T04:36:17;100706.78;;;-10.98;100.00
70925;BME280;58577;52.410;13.242;2022-12-16T04:39:22;100709.47;;;-11.12;100.00
70925;BME280;58577;52.410;13.242;2022-12-16T04:42:26;100714.75;;;-11.24;100.00
70925;BME280;58577;52.410;13.242;2022-12-16T04:45:31;100709.63;;;-11.33;100.00
70925;BME280;58577;52.410;13.242;2022-12-16T04:48:35;100720.84;;;-11.33;100.00
70925;BME280;58577;52.410;13.242;2022-12-16T04:51:39;100713.94;;;-11.34;100.00
70925;BME280;58577;52.410;13.242;2022-12-16T04:54:43;100717.38;;;-11.27;100.00
70925;BME280;58577;52.410;13.242;2022-12-16T04:57:50;100715.50;;;-11.10;100.00
70925;BME280;58577;52.410;13.242;2022-12-16T05:00:55;100714.47;;;-10.87;100.00
70925;BME280;58577;52.410;13.242;2022-12-16T05:04:00;100717.16;;;-10.98;100.00
70925;BME280;58577;52.410;13.242;2022-12-16T05:07:04;100720.75;;;-11.20;100.00
70925;BME280;58577;52.410;13.242;2022-12-16T05:10:09;100718.06;;;-11.05;100.00
70925;BME280;58577;52.410;13.242;2022-12-16T05:13:13;100709.53;;;-11.16;100.00
70925;BME280;58577;52.410;13.242;2022-12-16T05:16:17;100715.50;;;-11.11;100.00
70925;BME280;58577;52.410;13.242;2022-12-16T05:19:21;100715.56;;;-11.16;100.00
70925;BME280;58577;52.410;13.242;2022-12-16T05:22:26;100719.16;;;-11.37;100.00
70925;BME280;58577;52.410;13.242;2022-12-16T05:25:30;100726.16;;;-11.53;100.00
70925;BME280;58577;52.410;13.242;2022-12-16T05:28:35;100734.72;;;-11.43;100.00
70925;BME280;58577;52.410;13.242;2022-12-16T05:31:39;100730.44;;;-11.52;100.00
70925;BME280;58577;52.410;13.242;2022-12-16T05:34:43;100733.09;;;-11.58;100.00
70925;BME280;58577;52.410;13.242;2022-12-16T05:37:48;100731.34;;;-11.59;100.00
70925;BME280;58577;52.410;13.242;2022-12-16T05:40:56;100739.06;;;-11.48;100.00
70925;BME280;58577;52.410;13.242;2022-12-16T05:44:01;100736.47;;;-11.47;100.00
70925;BME280;58577;52.410;13.242;2022-12-16T05:47:06;100733.84;;;-11.42;100.00
70925;BME280;58577;52.410;13.242;2022-12-16T05:50:10;100737.28;;;-11.41;100.00
70925;BME280;58577;52.410;13.242;2022-12-16T05:53:26;100741.63;;;-11.42;100.00
70925;BME280;58577;52.410;13.242;2022-12-16T05:56:31;100746.88;;;-11.54;100.00
70925;BME280;58577;52.410;13.242;2022-12-16T05:59:35;100760.66;;;-11.54;100.00
70925;BME280;58577;52.410;13.242;2022-12-16T06:02:39;100760.63;;;-11.43;100.00
70925;BME280;58577;52.410;13.242;2022-12-16T06:05:43;100756.34;;;-11.50;100.00
70925;BME280;58577;52.410;13.242;2022-12-16T06:08:48;100770.91;;;-11.29;100.00
70925;BME280;58577;52.410;13.242;2022-12-16T06:11:52;100784.81;;;-11.53;100.00
70925;BME280;58577;52.410;13.242;2022-12-16T06:14:56;100786.56;;;-11.52;100.00
70925;BME280;58577;52.410;13.242;2022-12-16T06:18:01;100790.88;;;-11.57;100.00
70925;BME280;58577;52.410;13.242;2022-12-16T06:21:05;100795.97;;;-11.36;100.00
70925;BME280;58577;52.410;13.242;2022-12-16T06:24:10;100802.03;;;-11.35;100.00
70925;BME280;58577;52.410;13.242;2022-12-16T06:27:14;100813.22;;;-11.30;100.00
70925;BME280;58577;52.410;13.242;2022-12-16T06:30:19;100813.31;;;-11.53;100.00
70925;BME280;58577;52.410;13.242;2022-12-16T06:33:23;100815.97;;;-11.62;100.00
70925;BME280;58577;52.410;13.242;2022-12-16T06:36:28;100826.25;;;-11.52;100.00
70925;BME280;58577;52.410;13.242;2022-12-16T06:39:32;100831.47;;;-11.55;100.00
70925;BME280;58577;52.410;13.242;2022-12-16T06:42:40;100828.88;;;-11.61;100.00
70925;BME280;58577;52.410;13.242;2022-12-16T06:45:44;100829.78;;;-11.68;100.00
70925;BME280;58577;52.410;13.242;2022-12-16T06:48:48;100837.50;;;-11.59;100.00
70925;BME280;58577;52.410;13.242;2022-12-16T06:51:53;100834.09;;;-11.70;100.00
70925;BME280;58577;52.410;13.242;2022-12-16T06:54:57;100841.88;;;-11.78;100.00
70925;BME280;58577;52.410;13.242;2022-12-16T06:58:01;100835.84;;;-11.80;100.00
70925;BME280;58577;52.410;13.242;2022-12-16T07:01:06;100845.31;;;-11.70;100.00
70925;BME280;58577;52.410;13.242;2022-12-16T07:04:10;100850.47;;;-11.73;100.00
70925;BME280;58577;52.410;13.242;2022-12-16T07:07:14;100858.22;;;-11.65;100.00
70925;BME280;58577;52.410;13.242;2022-12-16T07:10:18;100847.03;;;-11.69;100.00
70925;BME280;58577;52.410;13.242;2022-12-16T07:13:23;100853.88;;;-11.54;100.00
70925;BME280;58577;52.410;13.242;2022-12-16T07:16:27;100859.91;;;-11.53;100.00
70925;BME280;58577;52.410;13.242;2022-12-16T07:19:31;100861.66;;;-11.49;100.00
70925;BME280;58577;52.410;13.242;2022-12-16T07:22:35;100881.53;;;-11.62;100.00
70925;BME280;58577;52.410;13.242;2022-12-16T07:25:40;100880.63;;;-11.53;100.00
70925;BME280;58577;52.410;13.242;2022-12-16T07:28:44;100894.41;;;-11.37;100.00
70925;BME280;58577;52.410;13.242;2022-12-16T07:31:49;100891.72;;;-11.17;100.00
70925;BME280;58577;52.410;13.242;2022-12-16T07:34:53;100904.75;;;-11.31;100.00
70925;BME280;58577;52.410;13.242;2022-12-16T07:37:57;100907.34;;;-11.40;100.00
70925;BME280;58577;52.410;13.242;2022-12-16T07:41:02;100912.59;;;-11.54;100.00
70925;BME280;58577;52.410;13.242;2022-12-16T07:44:06;100922.06;;;-11.50;100.00
70925;BME280;58577;52.410;13.242;2022-12-16T07:47:11;100928.09;;;-11.59;100.00
70925;BME280;58577;52.410;13.242;2022-12-16T07:50:15;100930.72;;;-11.60;100.00
70925;BME280;58577;52.410;13.242;2022-12-16T07:53:20;100939.34;;;-11.51;100.00
70925;BME280;58577;52.410;13.242;2022-12-16T07:56:25;100941.03;;;-11.42;100.00
70925;BME280;58577;52.410;13.242;2022-12-16T07:59:30;100935.81;;;-11.36;100.00
70925;BME280;58577;52.410;13.242;2022-12-16T08:02:34;100942.72;;;-11.24;100.00
70925;BME280;58577;52.410;13.242;2022-12-16T08:05:39;100950.47;;;-11.18;100.00
70925;BME280;58577;52.410;13.242;2022-12-16T08:08:43;100947.81;;;-11.09;100.00
70925;BME280;58577;52.410;13.242;2022-12-16T08:11:47;100952.97;;;-10.98;100.00
70925;BME280;58577;52.410;13.242;2022-12-16T08:14:52;100955.53;;;-10.87;100.00
70925;BME280;58577;52.410;13.242;2022-12-16T08:17:57;100958.06;;;-10.76;100.00
70925;BME280;58577;52.410;13.242;2022-12-16T08:21:01;100960.63;;;-10.65;100.00
70925;BME280;58577;52.410;13.242;2022-12-16T08:24:05;100960.53;;;-10.49;100.00
70925;BME280;58577;52.410;13.242;2022-12-16T08:27:10;100964.50;;;-10.03;100.00
70925;BME280;58577;52.410;13.242;2022-12-16T08:30:14;100967.09;;;-10.03;100.00
70925;BME280;58577;52.410;13.242;2022-12-16T08:33:19;100968.88;;;-10.10;100.00
70925;BME280;58577;52.410;13.242;2022-12-16T08:36:23;100967.13;;;-10.07;100.00
70925;BME280;58577;52.410;13.242;2022-12-16T08:39:28;100960.97;;;-9.96;100.00
70925;BME280;58577;52.410;13.242;2022-12-16T08:42:32;100969.06;;;-9.31;99.50
70925;BME280;58577;52.410;13.242;2022-12-16T08:45:37;100975.09;;;-9.28;97.96
70925;BME280;58577;52.410;13.242;2022-12-16T08:48:41;100973.25;;;-9.19;98.05
70925;BME280;58577;52.410;13.242;2022-12-16T08:51:46;100974.44;;;-8.73;99.58
70925;BME280;58577;52.410;13.242;2022-12-16T08:54:50;100982.19;;;-8.10;94.79
70925;BME280;58577;52.410;13.242;2022-12-16T08:57:54;100974.72;;;-8.33;94.02
70925;BME280;58577;52.410;13.242;2022-12-16T09:00:58;100978.13;;;-7.70;93.00
70925;BME280;58577;52.410;13.242;2022-12-16T09:04:03;100976.53;;;-7.29;90.25
70925;BME280;58577;52.410;13.242;2022-12-16T09:07:07;100975.28;;;-7.08;89.90
70925;BME280;58577;52.410;13.242;2022-12-16T09:10:11;100976.84;;;-6.57;89.76
70925;BME280;58577;52.410;13.242;2022-12-16T09:13:16;100984.50;;;-6.09;88.08
70925;BME280;58577;52.410;13.242;2022-12-16T09:16:20;100982.06;;;-6.17;88.54
70925;BME280;58577;52.410;13.242;2022-12-16T09:19:25;100974.13;;;-5.78;91.32
70925;BME280;58577;52.410;13.242;2022-12-16T09:22:29;100983.72;;;-5.42;89.75
70925;BME280;58577;52.410;13.242;2022-12-16T09:25:33;100987.63;;;-5.26;89.12
70925;BME280;58577;52.410;13.242;2022-12-16T09:28:41;100989.84;;;-5.10;89.08
70925;BME280;58577;52.410;13.242;2022-12-16T09:31:45;100981.09;;;-5.42;91.56
70925;BME280;58577;52.410;13.242;2022-12-16T09:34:50;100995.41;;;-5.57;93.17
70925;BME280;58577;52.410;13.242;2022-12-16T09:37:54;101002.66;;;-5.32;92.54
70925;BME280;58577;52.410;13.242;2022-12-16T09:51:01;100984.34;;;-5.00;92.03
70925;BME280;58577;52.410;13.242;2022-12-16T09:54:11;100992.91;;;-4.63;91.21
70925;BME280;58577;52.410;13.242;2022-12-16T09:57:44;100987.28;;;-4.49;91.38
70925;BME280;58577;52.410;13.242;2022-12-16T10:00:49;101000.16;;;-4.42;90.94
70925;BME280;58577;52.410;13.242;2022-12-16T10:03:54;100990.88;;;-4.53;91.79
70925;BME280;58577;52.410;13.242;2022-12-16T10:06:59;100991.44;;;-4.42;91.42
70925;BME280;58577;52.410;13.242;2022-12-16T10:13:43;100993.06;;;-4.38;94.07
70925;BME280;58577;52.410;13.242;2022-12-16T10:17:04;100992.13;;;-4.37;93.27
70925;BME280;58577;52.410;13.242;2022-12-16T10:20:41;100992.00;;;-4.32;92.27
70925;BME280;58577;52.410;13.242;2022-12-16T10:27:14;100986.41;;;-3.92;91.63
70925;BME280;58577;52.410;13.242;2022-12-16T10:30:18;100980.47;;;-3.99;91.31
70925;BME280;58577;52.410;13.242;2022-12-16T10:33:27;100991.53;;;-3.89;90.88
70925;BME280;58577;52.410;13.242;2022-12-16T10:36:34;100985.28;;;-3.85;91.86
70925;BME280;58577;52.410;13.242;2022-12-16T10:39:43;100994.06;;;-3.86;92.16
70925;BME280;58577;52.410;13.242;2022-12-16T10:43:01;100995.13;;;-3.91;91.86
70925;BME280;58577;52.410;13.242;2022-12-16T10:46:15;100999.72;;;-3.71;90.36
70925;BME280;58577;52.410;13.242;2022-12-16T10:49:21;100997.00;;;-3.68;90.98
70925;BME280;58577;52.410;13.242;2022-12-16T10:52:26;100995.63;;;-3.80;89.81
70925;BME280;58577;52.410;13.242;2022-12-16T10:59:05;100994.06;;;-3.86;91.90
70925;BME280;58577;52.410;13.242;2022-12-16T11:02:21;101006.25;;;-3.85;92.26
70925;BME280;58577;52.410;13.242;2022-12-16T11:05:33;101007.16;;;-3.86;92.54
70925;BME280;58577;52.410;13.242;2022-12-16T11:08:38;100999.91;;;-3.78;93.69
70925;BME280;58577;52.410;13.242;2022-12-16T11:11:47;101002.53;;;-3.78;93.27
70925;BME280;58577;52.410;13.242;2022-12-16T11:14:51;101009.34;;;-3.72;91.83
70925;BME280;58577;52.410;13.242;2022-12-16T11:18:07;101014.44;;;-3.67;91.48
70925;BME280;58577;52.410;13.242;2022-12-16T11:21:15;101005.06;;;-3.74;93.67
70925;BME280;58577;52.410;13.242;2022-12-16T11:24:21;101001.78;;;-3.81;94.04
70925;BME280;58577;52.410;13.242;2022-12-16T11:27:25;100992.66;;;-3.69;95.05
70925;BME280;58577;52.410;13.242;2022-12-16T11:30:30;100998.06;;;-3.74;94.58
70925;BME280;58577;52.410;13.242;2022-12-16T11:33:35;101007.38;;;-3.65;93.69
70925;BME280;58577;52.410;13.242;2022-12-16T11:36:40;101009.31;;;-3.70;93.01
70925;BME280;58577;52.410;13.242;2022-12-16T11:39:45;101018.91;;;-3.71;91.92
70925;BME280;58577;52.410;13.242;2022-12-16T11:43:02;101019.53;;;-3.63;90.98
70925;BME280;58577;52.410;13.242;2022-12-16T11:46:27;101024.78;;;-3.63;92.49
70925;BME280;58577;52.410;13.242;2022-12-16T11:49:32;101027.53;;;-3.67;93.79
70925;BME280;58577;52.410;13.242;2022-12-16T11:52:37;101021.72;;;-3.49;94.29
70925;BME280;58577;52.410;13.242;2022-12-16T11:55:44;101023.81;;;-3.60;94.98
70925;BME280;58577;52.410;13.242;2022-12-16T11:58:54;101019.28;;;-3.55;94.83
70925;BME280;58577;52.410;13.242;2022-12-16T12:02:14;101013.34;;;-3.60;95.29
70925;BME280;58577;52.410;13.242;2022-12-16T12:05:28;101018.66;;;-3.37;94.44
70925;BME280;58577;52.410;13.242;2022-12-16T12:19:22;101020.59;;;-3.42;95.87
70925;BME280;58577;52.410;13.242;2022-12-16T12:22:36;101023.97;;;-3.38;94.63
70925;BME280;58577;52.410;13.242;2022-12-16T12:29:01;101045.06;;;-3.41;94.30
70925;BME280;58577;52.410;13.242;2022-12-16T12:32:19;101049.47;;;-3.42;93.48
70925;BME280;58577;52.410;13.242;2022-12-16T12:39:02;101055.28;;;-3.32;93.02
70925;BME280;58577;52.410;13.242;2022-12-16T12:46:05;101057.72;;;-3.27;92.00
70925;BME280;58577;52.410;13.242;2022-12-16T12:53:01;101061.28;;;-3.28;92.15
70925;BME280;58577;52.410;13.242;2022-12-16T12:59:24;101059.25;;;-3.20;92.77
70925;BME280;58577;52.410;13.242;2022-12-16T13:02:54;101068.97;;;-3.24;92.25
70925;BME280;58577;52.410;13.242;2022-12-16T13:06:06;101070.94;;;-3.30;91.94
70925;BME280;58577;52.410;13.242;2022-12-16T13:12:30;101070.75;;;-3.51;94.59
70925;BME280;58577;52.410;13.242;2022-12-16T13:15:37;101076.63;;;-3.44;93.88
70925;BME280;58577;52.410;13.242;2022-12-16T13:18:42;101081.13;;;-3.48;94.21
70925;BME280;58577;52.410;13.242;2022-12-16T13:21:47;101079.94;;;-3.38;93.42
70925;BME280;58577;52.410;13.242;2022-12-16T13:24:51;101085.69;;;-3.26;93.72
70925;BME280;58577;52.410;13.242;2022-12-16T13:27:55;101087.00;;;-3.40;92.34
70925;BME280;58577;52.410;13.242;2022-12-16T13:31:03;101094.31;;;-3.49;93.21
70925;BME280;58577;52.410;13.242;2022-12-16T13:37:26;101102.06;;;-3.46;92.12
70925;BME280;58577;52.410;13.242;2022-12-16T13:40:48;101110.13;;;-3.52;92.07
70925;BME280;58577;52.410;13.242;2022-12-16T13:43:54;101112.09;;;-3.59;93.00
70925;BME280;58577;52.410;13.242;2022-12-16T13:46:59;101110.91;;;-3.49;92.21
70925;BME280;58577;52.410;13.242;2022-12-16T13:53:46;101116.16;;;-3.49;92.00
70925;BME280;58577;52.410;13.242;2022-12-16T13:56:53;101132.44;;;-3.67;91.07
70925;BME280;58577;52.410;13.242;2022-12-16T14:00:02;101134.13;;;-3.65;92.09
70925;BME280;58577;52.410;13.242;2022-12-16T14:03:12;101139.06;;;-3.56;92.46
70925;BME280;58577;52.410;13.242;2022-12-16T14:06:21;101142.25;;;-3.72;91.34
70925;BME280;58577;52.410;13.242;2022-12-16T14:09:36;101151.25;;;-3.83;92.38
70925;BME280;58577;52.410;13.242;2022-12-16T14:25:44;101167.19;;;-3.89;94.10
70925;BME280;58577;52.410;13.242;2022-12-16T14:28:50;101161.13;;;-3.91;93.50
70925;BME280;58577;52.410;13.242;2022-12-16T14:31:55;101166.28;;;-3.88;93.76
70925;BME280;58577;52.410;13.242;2022-12-16T14:35:00;101174.13;;;-3.58;92.32
70925;BME280;58577;52.410;13.242;2022-12-16T14:41:27;101178.28;;;-3.81;94.28
70925;BME280;58577;52.410;13.242;2022-12-16T14:44:31;101178.47;;;-3.87;95.73
70925;BME280;58577;52.410;13.242;2022-12-16T14:47:38;101177.66;;;-3.89;95.15
70925;BME280;58577;52.410;13.242;2022-12-16T14:50:43;101183.00;;;-3.92;95.73
70925;BME280;58577;52.410;13.242;2022-12-16T14:53:47;101191.69;;;-3.90;95.71
70925;BME280;58577;52.410;13.242;2022-12-16T14:56:56;101189.41;;;-4.02;96.31
70925;BME280;58577;52.410;13.242;2022-12-16T15:03:24;101194.03;;;-3.81;95.80
70925;BME280;58577;52.410;13.242;2022-12-16T15:06:40;101199.78;;;-3.98;95.77
70925;BME280;58577;52.410;13.242;2022-12-16T15:09:48;101199.16;;;-4.07;96.06
70925;BME280;58577;52.410;13.242;2022-12-16T15:12:53;101203.53;;;-4.08;96.93
70925;BME280;58577;52.410;13.242;2022-12-16T15:15:58;101199.97;;;-4.05;97.21
70925;BME280;58577;52.410;13.242;2022-12-16T15:19:03;101209.50;;;-4.03;97.22
70925;BME280;58577;52.410;13.242;2022-12-16T15:22:14;101213.31;;;-4.13;96.34
70925;BME280;58577;52.410;13.242;2022-12-16T15:25:24;101207.09;;;-4.10;96.99
70925;BME280;58577;52.410;13.242;2022-12-16T15:28:39;101210.75;;;-4.16;97.14
70925;BME280;58577;52.410;13.242;2022-12-16T15:31:44;101218.38;;;-4.07;95.31
70925;BME280;58577;52.410;13.242;2022-12-16T15:34:48;101229.22;;;-4.21;96.21
70925;BME280;58577;52.410;13.242;2022-12-16T15:37:53;101231.56;;;-4.11;96.17
70925;BME280;58577;52.410;13.242;2022-12-16T15:40:57;101240.53;;;-4.19;95.70
70925;BME280;58577;52.410;13.242;2022-12-16T15:44:02;101245.66;;;-4.16;96.16
70925;BME280;58577;52.410;13.242;2022-12-16T15:50:33;101249.28;;;-4.20;96.94
70925;BME280;58577;52.410;13.242;2022-12-16T15:53:38;101257.09;;;-4.18;96.46
70925;BME280;58577;52.410;13.242;2022-12-16T15:56:44;101256.25;;;-4.19;95.76
70925;BME280;58577;52.410;13.242;2022-12-16T15:59:57;101265.00;;;-4.20;96.44
70925;BME280;58577;52.410;13.242;2022-12-16T16:03:02;101268.03;;;-4.37;97.08
70925;BME280;58577;52.410;13.242;2022-12-16T16:06:18;101271.50;;;-4.35;97.67
70925;BME280;58577;52.410;13.242;2022-12-16T16:09:26;101266.91;;;-4.25;97.67
70925;BME280;58577;52.410;13.242;2022-12-16T16:12:31;101277.56;;;-4.32;97.33
70925;BME280;58577;52.410;13.242;2022-12-16T16:15:36;101278.41;;;-4.30;97.96
70925;BME280;58577;52.410;13.242;2022-12-16T16:18:41;101283.81;;;-4.38;98.02
70925;BME280;58577;52.410;13.242;2022-12-16T16:21:45;101284.56;;;-4.33;97.83
70925;BME280;58577;52.410;13.242;2022-12-16T16:24:50;101290.69;;;-4.32;97.32
70925;BME280;58577;52.410;13.242;2022-12-16T16:27:54;101292.34;;;-4.30;96.77
70925;BME280;58577;52.410;13.242;2022-12-16T16:30:58;101295.97;;;-4.36;97.60
70925;BME280;58577;52.410;13.242;2022-12-16T16:34:03;101292.38;;;-4.31;97.64
70925;BME280;58577;52.410;13.242;2022-12-16T16:37:12;101295.78;;;-4.28;97.46
70925;BME280;58577;52.410;13.242;2022-12-16T16:40:28;101298.47;;;-4.31;97.40
70925;BME280;58577;52.410;13.242;2022-12-16T16:43:33;101297.06;;;-4.44;97.39
70925;BME280;58577;52.410;13.242;2022-12-16T16:46:39;101307.53;;;-4.44;97.67
70925;BME280;58577;52.410;13.242;2022-12-16T16:49:46;101306.91;;;-4.54;99.30
70925;BME280;58577;52.410;13.242;2022-12-16T16:52:50;101304.09;;;-4.46;98.89
70925;BME280;58577;52.410;13.242;2022-12-16T16:55:55;101300.81;;;-4.55;99.51
70925;BME280;58577;52.410;13.242;2022-12-16T16:58:59;101308.41;;;-4.44;98.83
70925;BME280;58577;52.410;13.242;2022-12-16T17:02:15;101298.63;;;-4.37;98.66
70925;BME280;58577;52.410;13.242;2022-12-16T17:05:20;101305.47;;;-4.31;98.00
70925;BME280;58577;52.410;13.242;2022-12-16T17:08:24;101314.56;;;-4.46;98.04
70925;BME280;58577;52.410;13.242;2022-12-16T17:11:29;101309.09;;;-4.37;98.44